Terminal Aerodrome Forecast
Issued by NWS

Home | Current Version | Previous Version | Graphics & Text | Print | Product List | Glossary On
Versions: 1 2 3 4 5 6 7 8 9 10 11 12 13 14 15 16 17
000
FTUS45 KGGW 222018 AAA
TAFSDY
TAF AMD
KSDY 222018Z 2220/2318 34004KT 6SM BR BKN015
     FM230100 VRB05KT P6SM BKN025
     FM230600 05008KT P6SM BKN025
     FM230900 06008KT P6SM BKN016
     FM231100 07008KT P6SM BKN022
     FM231700 09012G20KT P6SM BKN020=

USA.gov is the U.S. government's official web portal to all federal, state and local government web resources and services.